createdAt,value
2017-11-04T00:01:40.451Z,27.15
2017-11-04T00:04:06.820Z,26.20
2017-11-04T00:06:33.907Z,20.20
2017-11-04T00:09:00.246Z,22.90
2017-11-04T00:11:26.595Z,24.42
2017-11-04T00:13:52.929Z,20.25
2017-11-04T00:16:19.263Z,22.33
2017-11-04T00:18:46.586Z,23.73
2017-11-04T00:21:12.925Z,18.25
2017-11-04T00:23:39.242Z,16.08
2017-11-04T00:26:05.583Z,18.27
2017-11-04T00:28:31.926Z,16.67
2017-11-04T00:30:58.254Z,16.62
2017-11-04T00:33:24.607Z,23.12
2017-11-04T00:35:51.683Z,21.37
2017-11-04T00:38:18.004Z,17.35
2017-11-04T00:40:44.375Z,22.48
2017-11-04T00:43:10.772Z,20.80
2017-11-04T00:45:37.106Z,23.67
2017-11-04T00:48:03.459Z,23.98
2017-11-04T00:50:29.786Z,21.48
2017-11-04T00:52:56.139Z,18.80
2017-11-04T00:55:22.507Z,16.02
2017-11-04T00:57:49.595Z,20.95
2017-11-04T01:00:15.921Z,15.98
2017-11-04T01:02:43.302Z,14.50
2017-11-04T01:05:09.622Z,21.33
2017-11-04T01:07:35.967Z,20.45
2017-11-04T01:10:02.326Z,18.02
2017-11-04T01:12:29.449Z,16.95
2017-11-04T01:14:55.767Z,21.25
2017-11-04T01:17:22.130Z,21.67
2017-11-04T01:19:49.239Z,16.83
2017-11-04T01:22:15.591Z,14.98
2017-11-04T01:24:41.987Z,21.15
2017-11-04T01:27:08.316Z,19.50
2017-11-04T01:29:34.677Z,18.33
2017-11-04T01:32:01.022Z,17.70
2017-11-04T01:34:28.442Z,17.33
2017-11-04T01:36:55.561Z,14.52
2017-11-04T01:39:21.886Z,14.50
2017-11-04T01:41:48.977Z,15.70
2017-11-04T01:44:15.329Z,19.15
2017-11-04T01:46:41.702Z,15.77
2017-11-04T01:49:08.043Z,13.55
2017-11-04T01:51:35.254Z,17.20
2017-11-04T01:54:01.360Z,16.45
2017-11-04T01:56:27.724Z,12.18
2017-11-04T01:58:54.091Z,13.52
2017-11-04T02:01:20.410Z,14.00
2017-11-04T02:03:46.775Z,12.75
2017-11-04T02:06:13.150Z,15.05
2017-11-04T02:08:40.274Z,20.98
2017-11-04T02:11:06.603Z,13.95
2017-11-04T02:13:33.006Z,15.77
2017-11-04T02:15:59.371Z,12.43
2017-11-04T02:18:25.737Z,14.20
2017-11-04T02:20:52.123Z,15.50
2017-11-04T02:23:19.522Z,22.90
2017-11-04T02:25:45.867Z,23.58
2017-11-04T02:28:12.232Z,28.75
2017-11-04T02:30:38.559Z,22.77
2017-11-04T02:33:05.994Z,16.25
2017-11-04T02:35:32.360Z,18.02
2017-11-04T02:37:59.736Z,17.10
2017-11-04T02:40:26.811Z,14.45
2017-11-04T02:42:53.194Z,14.32
2017-11-04T02:45:19.522Z,12.27
2017-11-04T02:47:45.858Z,16.83
2017-11-04T02:50:12.242Z,13.62
2017-11-04T02:52:38.593Z,19.33
2017-11-04T02:55:04.930Z,21.10
2017-11-04T02:57:31.275Z,18.80
2017-11-04T02:59:58.538Z,10.55
2017-11-04T03:02:24.862Z,14.70
2017-11-04T03:04:52.002Z,13.02
2017-11-04T03:07:18.330Z,15.88
2017-11-04T03:09:44.678Z,14.93
2017-11-04T03:12:11.659Z,15.85
2017-11-04T03:14:38.020Z,16.20
2017-11-04T03:17:04.368Z,16.80
2017-11-04T03:19:30.726Z,16.80
2017-11-04T03:21:57.841Z,15.55
2017-11-04T03:24:24.211Z,17.05
2017-11-04T03:26:51.335Z,17.15
2017-11-04T03:29:17.705Z,17.37
2017-11-04T03:31:46.467Z,15.68
2017-11-04T03:34:13.581Z,13.27
2017-11-04T03:36:39.938Z,16.42
2017-11-04T03:39:06.290Z,16.23
2017-11-04T03:41:33.373Z,16.75
2017-11-04T03:43:59.739Z,14.00
2017-11-04T03:46:26.075Z,15.73
2017-11-04T03:48:52.446Z,16.00
2017-11-04T03:51:18.761Z,17.15
2017-11-04T03:53:45.860Z,11.18
2017-11-04T03:56:12.185Z,11.50
2017-11-04T03:58:38.577Z,12.57
2017-11-04T04:01:04.898Z,13.93
2017-11-04T04:03:31.986Z,15.88
2017-11-04T04:05:58.328Z,14.48
2017-11-04T04:08:24.656Z,14.00
2017-11-04T04:10:51.027Z,15.57
2017-11-04T04:13:18.094Z,13.10
2017-11-04T04:15:44.421Z,13.85
2017-11-04T04:18:11.518Z,14.10
2017-11-04T04:20:37.851Z,20.80
2017-11-04T04:23:04.202Z,14.00
2017-11-04T04:25:30.554Z,15.85
2017-11-04T04:27:56.885Z,18.75
2017-11-04T04:30:23.959Z,15.68
2017-11-04T04:32:50.303Z,15.23
2017-11-04T04:35:16.631Z,19.02
2017-11-04T04:37:42.983Z,15.52
2017-11-04T04:40:09.362Z,16.33
2017-11-04T04:42:35.754Z,16.60
2017-11-04T04:45:02.122Z,15.23
2017-11-04T04:47:29.249Z,17.60
2017-11-04T04:49:55.603Z,17.98
2017-11-04T04:52:22.691Z,13.95
2017-11-04T04:54:49.043Z,15.07
2017-11-04T04:57:15.416Z,13.13
2017-11-04T04:59:41.736Z,16.35
2017-11-04T05:02:08.822Z,13.30
2017-11-04T05:04:35.144Z,11.02
2017-11-04T05:07:02.522Z,11.80
2017-11-04T05:09:28.877Z,15.10
2017-11-04T05:11:55.539Z,14.93
2017-11-04T05:14:22.592Z,15.70
2017-11-04T05:16:48.940Z,12.35
2017-11-04T05:19:15.292Z,15.00
2017-11-04T05:21:41.678Z,12.63
2017-11-04T05:24:08.743Z,9.82
2017-11-04T05:26:35.087Z,9.30
2017-11-04T05:29:01.446Z,11.25
2017-11-04T05:31:27.764Z,10.18
2017-11-04T05:33:54.150Z,9.25
2017-11-04T05:36:20.479Z,10.48
2017-11-04T05:38:47.565Z,10.05
2017-11-04T05:41:13.911Z,10.73
2017-11-04T05:43:41.394Z,9.43
2017-11-04T05:46:07.715Z,17.08
2017-11-04T05:48:34.066Z,13.38
2017-11-04T05:51:01.171Z,15.93
2017-11-04T05:53:27.507Z,14.95
2017-11-04T05:55:53.842Z,13.23
2017-11-04T05:58:20.210Z,15.05
2017-11-04T06:00:47.351Z,18.30
2017-11-04T06:03:14.447Z,14.50
2017-11-04T06:05:40.834Z,12.95
2017-11-04T06:08:07.894Z,11.10
2017-11-04T06:10:34.235Z,11.60
2017-11-04T06:13:00.620Z,13.38
2017-11-04T06:15:26.946Z,11.30
2017-11-04T06:17:53.276Z,10.55
2017-11-04T06:20:19.640Z,11.65
2017-11-04T06:22:46.032Z,10.68
2017-11-04T06:25:12.358Z,9.70
2017-11-04T06:27:38.702Z,14.70
2017-11-04T06:30:05.060Z,11.52
2017-11-04T06:32:32.167Z,12.57
2017-11-04T06:34:58.546Z,12.05
2017-11-04T06:37:25.698Z,12.00
2017-11-04T06:39:52.040Z,12.00
2017-11-04T06:42:18.382Z,12.25
2017-11-04T06:44:44.696Z,14.30
2017-11-04T06:47:11.055Z,12.05
2017-11-04T06:49:37.378Z,16.25
2017-11-04T06:52:03.744Z,17.42
2017-11-04T06:54:30.075Z,10.45
2017-11-04T06:56:57.806Z,10.95
2017-11-04T06:59:24.142Z,11.50
2017-11-04T07:01:50.493Z,9.60
2017-11-04T07:04:16.815Z,10.40
2017-11-04T07:06:43.151Z,11.00
2017-11-04T07:09:09.485Z,9.45
2017-11-04T07:11:35.844Z,7.68
2017-11-04T07:14:02.952Z,10.75
2017-11-04T07:16:29.327Z,7.68
2017-11-04T07:18:56.405Z,9.65
2017-11-04T07:21:22.758Z,9.70
2017-11-04T07:23:49.082Z,9.65
2017-11-04T07:26:15.447Z,10.43
2017-11-04T07:28:41.767Z,9.13
2017-11-04T07:31:08.124Z,9.45
2017-11-04T07:33:35.179Z,6.47
2017-11-04T07:36:02.278Z,7.80
2017-11-04T07:38:28.602Z,9.35
2017-11-04T07:40:54.963Z,8.18
2017-11-04T07:43:21.287Z,8.23
2017-11-04T07:45:47.630Z,8.15
2017-11-04T07:48:13.992Z,11.65
2017-11-04T07:50:40.398Z,6.75
2017-11-04T07:53:08.524Z,5.80
2017-11-04T07:55:34.891Z,5.82
2017-11-04T07:58:01.962Z,6.25
2017-11-04T08:00:28.291Z,6.00
2017-11-04T08:02:54.658Z,4.65
2017-11-04T08:05:20.998Z,4.70
2017-11-04T08:07:47.322Z,3.85
2017-11-04T08:10:13.695Z,5.95
2017-11-04T08:12:40.798Z,4.15
2017-11-04T08:15:07.142Z,4.10
2017-11-04T08:17:33.527Z,4.80
2017-11-04T08:19:59.857Z,3.72
2017-11-04T08:22:26.212Z,4.85
2017-11-04T08:24:52.536Z,5.10
2017-11-04T08:27:19.755Z,4.45
2017-11-04T08:29:46.840Z,4.32
2017-11-04T08:32:13.194Z,4.45
2017-11-04T08:34:39.523Z,4.22
2017-11-04T08:37:05.865Z,3.72
2017-11-04T08:39:32.186Z,4.40
2017-11-04T08:42:02.510Z,4.97
2017-11-04T08:44:31.003Z,3.80
2017-11-04T08:46:57.504Z,3.20
2017-11-04T08:49:25.020Z,5.70
2017-11-04T08:51:51.474Z,2.90
2017-11-04T08:54:17.971Z,3.50
2017-11-04T08:57:01.783Z,4.95
2017-11-04T08:59:28.270Z,3.53
2017-11-04T09:01:54.791Z,3.30
2017-11-04T09:04:21.942Z,6.62
2017-11-04T09:06:50.079Z,3.28
2017-11-04T09:09:16.528Z,2.83
2017-11-04T09:11:43.719Z,3.75
2017-11-04T09:14:10.224Z,3.33
2017-11-04T09:16:37.422Z,3.20
2017-11-04T09:19:03.801Z,3.15
2017-11-04T09:21:30.279Z,3.87
2017-11-04T09:23:56.720Z,3.60
2017-11-04T09:26:23.104Z,3.53
2017-11-04T09:28:50.309Z,3.50
2017-11-04T09:31:16.786Z,3.33
2017-11-04T09:33:43.180Z,2.60
2017-11-04T09:36:09.683Z,2.80
2017-11-04T09:38:36.107Z,3.23
2017-11-04T09:41:02.602Z,3.10
2017-11-04T09:43:31.335Z,4.90
2017-11-04T09:45:58.217Z,3.33
2017-11-04T09:48:24.823Z,3.27
2017-11-04T09:50:51.354Z,2.60
2017-11-04T09:53:18.895Z,2.80
2017-11-04T09:55:46.145Z,5.33
2017-11-04T09:58:12.556Z,12.47
2017-11-04T10:00:39.016Z,3.33
2017-11-04T10:03:05.437Z,2.93
2017-11-04T10:05:31.912Z,2.57
2017-11-04T10:07:58.388Z,4.40
2017-11-04T10:10:24.801Z,2.63
2017-11-04T10:12:51.226Z,3.37
2017-11-04T10:15:17.681Z,3.73
2017-11-04T10:17:44.857Z,3.40
2017-11-04T10:20:12.035Z,2.90
2017-11-04T10:22:38.518Z,3.90
2017-11-04T10:25:04.946Z,3.40
2017-11-04T10:27:31.342Z,2.90
2017-11-04T10:30:05.791Z,2.67
2017-11-04T10:32:32.197Z,3.10
2017-11-04T10:34:58.657Z,3.20
2017-11-04T10:37:25.053Z,5.47
2017-11-04T10:39:52.544Z,2.57
2017-11-04T10:42:19.045Z,3.53
2017-11-04T10:44:45.467Z,2.97
2017-11-04T10:47:11.853Z,4.33
2017-11-04T10:49:38.259Z,4.10
2017-11-04T10:52:04.648Z,3.53
2017-11-04T10:54:31.023Z,3.97
2017-11-04T10:56:57.383Z,2.97
2017-11-04T10:59:23.703Z,3.30
2017-11-04T11:01:50.067Z,4.30
2017-11-04T11:04:16.400Z,3.13
2017-11-04T11:06:42.726Z,2.80
2017-11-04T11:09:09.826Z,4.00
2017-11-04T11:11:36.195Z,2.93
2017-11-04T11:14:03.269Z,2.83
2017-11-04T11:16:29.617Z,3.00
2017-11-04T11:18:55.939Z,3.23
2017-11-04T11:21:22.296Z,2.90
2017-11-04T11:23:48.625Z,2.73
2017-11-04T11:26:14.970Z,2.77
2017-11-04T11:28:41.303Z,3.70
2017-11-04T11:31:07.670Z,3.50
2017-11-04T11:33:34.030Z,3.47
2017-11-04T11:36:00.385Z,4.63
2017-11-04T11:38:26.718Z,3.20
2017-11-04T11:40:53.061Z,3.37
2017-11-04T11:43:19.386Z,3.80
2017-11-04T11:45:45.723Z,3.93
2017-11-04T11:48:12.079Z,3.83
2017-11-04T11:50:38.459Z,3.00
2017-11-04T11:53:04.815Z,4.63
2017-11-04T11:55:31.136Z,7.13
2017-11-04T11:57:57.565Z,3.37
2017-11-04T12:00:23.902Z,3.30
2017-11-04T12:02:50.252Z,3.30
2017-11-04T12:05:17.335Z,3.70
2017-11-04T12:07:43.714Z,2.63
2017-11-04T12:10:10.040Z,3.60
2017-11-04T12:12:36.354Z,3.53
2017-11-04T12:15:02.736Z,3.30
2017-11-04T12:17:29.834Z,3.97
2017-11-04T12:19:56.229Z,3.70
2017-11-04T12:22:22.767Z,4.20
2017-11-04T12:24:49.113Z,3.20
2017-11-04T12:27:15.433Z,4.73
2017-11-04T12:29:42.524Z,4.03
2017-11-04T12:32:08.866Z,4.00
2017-11-04T12:34:35.191Z,5.17
2017-11-04T12:37:01.531Z,5.27
2017-11-04T12:39:27.847Z,3.60
2017-11-04T12:41:54.202Z,3.97
2017-11-04T12:44:21.274Z,4.63
2017-11-04T12:46:48.035Z,4.13
2017-11-04T12:49:15.109Z,3.80
2017-11-04T12:51:41.514Z,4.70
2017-11-04T12:54:08.576Z,3.33
2017-11-04T12:56:34.918Z,4.10
2017-11-04T12:59:01.254Z,3.57
2017-11-04T13:01:27.627Z,4.00
2017-11-04T13:03:53.938Z,4.10
2017-11-04T13:06:20.290Z,4.90
2017-11-04T13:08:46.651Z,4.80
2017-11-04T13:11:12.995Z,4.80
2017-11-04T13:13:39.319Z,7.13
2017-11-04T13:16:05.659Z,4.53
2017-11-04T13:18:31.991Z,4.93
2017-11-04T13:20:58.333Z,5.03
2017-11-04T13:23:24.650Z,4.23
2017-11-04T13:25:52.003Z,4.30
2017-11-04T13:28:19.345Z,4.30
2017-11-04T13:30:45.683Z,5.33
2017-11-04T13:33:13.022Z,5.67
2017-11-04T13:35:39.366Z,6.70
2017-11-04T13:38:05.716Z,4.20
2017-11-04T13:40:32.048Z,4.77
2017-11-04T13:42:59.159Z,4.87
2017-11-04T13:45:25.503Z,4.93
2017-11-04T13:47:51.859Z,4.80
2017-11-04T13:50:18.206Z,5.30
2017-11-04T13:52:45.271Z,5.80
2017-11-04T13:55:12.334Z,5.20
2017-11-04T13:57:38.677Z,4.20
2017-11-04T14:00:05.012Z,5.23
2017-11-04T14:02:31.450Z,6.30
2017-11-04T14:04:57.778Z,4.80
2017-11-04T14:07:24.115Z,4.93
2017-11-04T14:09:50.454Z,4.53
2017-11-04T14:12:16.780Z,5.13
2017-11-04T14:14:43.107Z,4.70
2017-11-04T14:17:09.452Z,4.70
2017-11-04T14:19:35.771Z,5.07
2017-11-04T14:22:02.150Z,4.60
2017-11-04T14:24:29.270Z,4.80
2017-11-04T14:26:55.596Z,4.17
2017-11-04T14:29:21.935Z,4.77
2017-11-04T14:31:48.998Z,5.90
2017-11-04T14:34:16.057Z,3.93
2017-11-04T14:36:42.419Z,4.47
2017-11-04T14:39:08.758Z,4.33
2017-11-04T14:41:35.126Z,5.17
2017-11-04T14:44:02.182Z,3.93
2017-11-04T14:46:30.298Z,4.80
2017-11-04T14:48:56.639Z,4.63
2017-11-04T14:51:22.950Z,4.60
2017-11-04T14:53:49.291Z,4.60
2017-11-04T14:56:15.658Z,4.40
2017-11-04T14:58:42.054Z,4.37
2017-11-04T15:01:08.426Z,4.57
2017-11-04T15:03:35.533Z,4.60
2017-11-04T15:06:01.870Z,4.53
2017-11-04T15:08:28.207Z,4.47
2017-11-04T15:10:54.555Z,4.00
2017-11-04T15:13:20.920Z,5.60
2017-11-04T15:15:47.267Z,4.27
2017-11-04T15:18:14.333Z,4.40
2017-11-04T15:20:40.712Z,5.30
2017-11-04T15:23:07.778Z,3.93
2017-11-04T15:25:34.102Z,6.10
2017-11-04T15:28:00.435Z,6.73
2017-11-04T15:30:26.780Z,4.30
2017-11-04T15:32:53.097Z,4.33
2017-11-04T15:35:19.457Z,4.37
2017-11-04T15:37:45.793Z,4.70
2017-11-04T15:40:12.131Z,4.37
2017-11-04T15:42:38.507Z,5.07
2017-11-04T15:45:05.599Z,5.73
2017-11-04T15:47:31.921Z,5.77
2017-11-04T15:49:58.285Z,6.10
2017-11-04T15:52:24.606Z,5.60
2017-11-04T15:54:50.951Z,7.90
2017-11-04T15:57:17.297Z,6.60
2017-11-04T15:59:43.617Z,5.23
2017-11-04T16:02:09.958Z,4.80
2017-11-04T16:04:37.046Z,8.70
2017-11-04T16:07:03.394Z,5.97
2017-11-04T16:09:29.746Z,5.93
2017-11-04T16:11:56.070Z,5.70
2017-11-04T16:14:22.405Z,6.43
2017-11-04T16:16:48.805Z,6.33
2017-11-04T16:19:15.137Z,12.40
2017-11-04T16:21:41.499Z,7.10
2017-11-04T16:24:07.834Z,8.40
2017-11-04T16:26:34.206Z,7.20
2017-11-04T16:29:00.530Z,7.90
2017-11-04T16:31:26.859Z,17.53
2017-11-04T16:33:53.212Z,6.00
2017-11-04T16:36:19.574Z,6.50
2017-11-04T16:38:46.942Z,6.13
2017-11-04T16:41:13.299Z,7.07
2017-11-04T16:43:39.623Z,7.13
2017-11-04T16:46:06.707Z,7.73
2017-11-04T16:48:33.035Z,8.17
2017-11-04T16:51:00.367Z,17.10
2017-11-04T16:53:26.709Z,6.23
2017-11-04T16:55:53.093Z,7.60
2017-11-04T16:58:19.434Z,10.07
2017-11-04T17:00:46.533Z,17.50
2017-11-04T17:03:12.868Z,15.67
2017-11-04T17:05:39.228Z,9.80
2017-11-04T17:08:05.562Z,14.90
2017-11-04T17:10:31.900Z,32.63
2017-11-04T17:12:58.255Z,9.10
2017-11-04T17:15:24.592Z,15.90
2017-11-04T17:17:50.915Z,13.70
2017-11-04T17:20:17.275Z,16.13
2017-11-04T17:22:43.600Z,12.83
2017-11-04T17:25:09.957Z,12.35
2017-11-04T17:27:36.319Z,7.60
2017-11-04T17:30:03.419Z,22.60
2017-11-04T17:32:29.810Z,31.10
2017-11-04T17:34:56.936Z,23.10
2017-11-04T17:37:23.302Z,13.23
2017-11-04T17:39:49.652Z,10.53
2017-11-04T17:42:16.017Z,8.52
2017-11-04T17:44:42.359Z,9.20
2017-11-04T17:47:09.482Z,11.32
2017-11-04T17:49:35.819Z,6.93
2017-11-04T17:52:02.184Z,8.50
2017-11-04T17:54:28.522Z,10.07
2017-11-04T17:56:54.865Z,9.02
2017-11-04T17:59:21.202Z,9.13
2017-11-04T18:01:47.582Z,10.18
2017-11-04T18:04:13.918Z,10.38
2017-11-04T18:06:40.314Z,11.60
2017-11-04T18:09:06.659Z,10.90
2017-11-04T18:11:32.986Z,12.20
2017-11-04T18:13:59.341Z,10.10
2017-11-04T18:16:26.480Z,12.27
2017-11-04T18:18:52.814Z,9.95
2017-11-04T18:21:19.151Z,11.07
2017-11-04T18:23:45.511Z,10.75
2017-11-04T18:26:11.838Z,12.25
2017-11-04T18:28:38.162Z,11.23
2017-11-04T18:31:05.290Z,11.10
2017-11-04T18:33:31.630Z,12.50
2017-11-04T18:35:58.731Z,11.27
2017-11-04T18:38:25.082Z,10.75
2017-11-04T18:40:52.442Z,9.65
2017-11-04T18:43:18.778Z,10.60
2017-11-04T18:45:45.149Z,10.77
2017-11-04T18:48:11.500Z,10.82
2017-11-04T18:50:37.870Z,10.55
2017-11-04T18:53:04.208Z,12.02
2017-11-04T18:55:30.543Z,11.68
2017-11-04T18:57:57.618Z,11.90
2017-11-04T19:00:23.993Z,11.55
2017-11-04T19:02:50.346Z,11.45
2017-11-04T19:05:16.684Z,11.88
2017-11-04T19:07:43.780Z,11.00
2017-11-04T19:10:10.146Z,10.77
2017-11-04T19:12:36.770Z,12.45
2017-11-04T19:15:03.122Z,11.15
2017-11-04T19:17:29.478Z,11.95
2017-11-04T19:19:56.577Z,19.10
2017-11-04T19:22:22.914Z,12.45
2017-11-04T19:24:49.264Z,10.63
2017-11-04T19:27:15.590Z,12.57
2017-11-04T19:29:41.914Z,13.60
2017-11-04T19:32:08.258Z,16.05
2017-11-04T19:34:34.592Z,13.57
2017-11-04T19:37:01.724Z,12.10
2017-11-04T19:39:28.340Z,11.00
2017-11-04T19:41:54.708Z,12.68
2017-11-04T19:44:21.890Z,12.02
2017-11-04T19:46:48.246Z,11.55
2017-11-04T19:49:14.583Z,10.35
2017-11-04T19:51:40.942Z,11.50
2017-11-04T19:54:07.275Z,10.13
2017-11-04T19:56:33.631Z,9.38
2017-11-04T19:58:59.959Z,8.73
2017-11-04T20:01:26.289Z,7.15
2017-11-04T20:03:53.379Z,8.63
2017-11-04T20:06:19.766Z,8.60
2017-11-04T20:08:46.836Z,8.48
2017-11-04T20:11:13.182Z,9.27
2017-11-04T20:13:39.515Z,10.52
2017-11-04T20:16:06.056Z,16.40
2017-11-04T20:18:32.880Z,16.35
2017-11-04T20:20:59.451Z,12.35
2017-11-04T20:23:25.975Z,18.65
2017-11-04T20:25:53.461Z,7.87
2017-11-04T20:28:20.656Z,7.10
2017-11-04T20:30:47.006Z,8.30
2017-11-04T20:33:13.326Z,7.82
2017-11-04T20:35:39.695Z,9.65
2017-11-04T20:38:06.030Z,7.45
2017-11-04T20:40:32.387Z,6.87
2017-11-04T20:42:58.775Z,8.98
2017-11-04T20:45:26.010Z,8.50
2017-11-04T20:47:52.455Z,9.35
2017-11-04T20:50:18.836Z,7.93
2017-11-04T20:52:45.163Z,6.10
2017-11-04T20:55:11.495Z,5.40
2017-11-04T20:57:37.855Z,4.70
2017-11-04T21:00:04.203Z,5.07
2017-11-04T21:02:30.542Z,7.35
2017-11-04T21:04:56.974Z,14.25
2017-11-04T21:07:23.314Z,11.02
2017-11-04T21:09:49.650Z,13.18
2017-11-04T21:12:15.987Z,23.10
2017-11-04T21:14:43.083Z,12.10
2017-11-04T21:17:09.472Z,13.93
2017-11-04T21:19:36.550Z,13.85
2017-11-04T21:22:03.654Z,13.90
2017-11-04T21:24:30.046Z,16.10
2017-11-04T21:26:56.652Z,15.93
2017-11-04T21:29:23.000Z,12.15
2017-11-04T21:31:49.411Z,12.27
2017-11-04T21:34:16.509Z,9.52
2017-11-04T21:36:42.860Z,11.20
2017-11-04T21:39:09.234Z,13.77
2017-11-04T21:41:35.571Z,10.80
2017-11-04T21:44:01.915Z,10.35
2017-11-04T21:46:28.291Z,10.02
2017-11-04T21:48:55.438Z,15.55
2017-11-04T21:51:21.795Z,30.23
2017-11-04T21:53:48.166Z,22.73
2017-11-04T21:56:14.523Z,12.30
2017-11-04T21:58:41.009Z,13.50
2017-11-04T22:01:08.083Z,15.40
2017-11-04T22:03:34.417Z,10.52
2017-11-04T22:06:00.784Z,8.63
2017-11-04T22:08:27.865Z,11.15
2017-11-04T22:10:54.211Z,18.77
2017-11-04T22:13:20.568Z,21.75
2017-11-04T22:15:46.925Z,8.70
2017-11-04T22:18:13.309Z,8.35
2017-11-04T22:20:40.694Z,8.75
2017-11-04T22:23:07.067Z,9.30
2017-11-04T22:25:33.406Z,8.60
2017-11-04T22:28:00.799Z,7.95
2017-11-04T22:30:27.156Z,7.00
2017-11-04T22:32:54.275Z,6.68
2017-11-04T22:35:20.629Z,6.80
2017-11-04T22:37:47.013Z,6.55
2017-11-04T22:40:13.372Z,6.72
2017-11-04T22:42:39.763Z,10.63
2017-11-04T22:45:06.146Z,7.82
2017-11-04T22:47:32.508Z,7.80
2017-11-04T22:49:59.623Z,7.07
2017-11-04T22:52:26.011Z,7.12
2017-11-04T22:54:52.422Z,6.47
2017-11-04T22:57:18.782Z,8.50
2017-11-04T22:59:45.127Z,10.13
2017-11-04T23:02:11.508Z,7.25
2017-11-04T23:04:38.603Z,7.43
2017-11-04T23:07:04.954Z,8.30
2017-11-04T23:09:31.314Z,6.57
2017-11-04T23:11:58.417Z,7.87
2017-11-04T23:14:24.788Z,7.55
2017-11-04T23:16:51.907Z,6.25
2017-11-04T23:19:18.257Z,5.95
2017-11-04T23:21:44.600Z,6.85
2017-11-04T23:24:11.731Z,9.25
2017-11-04T23:26:38.083Z,7.05
2017-11-04T23:29:05.165Z,7.43
2017-11-04T23:31:32.283Z,6.60
2017-11-04T23:33:59.368Z,5.78
2017-11-04T23:36:25.702Z,5.90
2017-11-04T23:38:52.079Z,5.45
2017-11-04T23:41:19.174Z,6.00
2017-11-04T23:43:45.539Z,5.57
2017-11-04T23:46:11.899Z,8.55
2017-11-04T23:48:38.295Z,5.10
2017-11-04T23:51:04.655Z,5.40
2017-11-04T23:53:31.756Z,6.07
2017-11-04T23:55:58.191Z,5.00
2017-11-04T23:58:25.547Z,6.72
